createdAt,value
2022-07-30T00:01:52.733Z,16.84
2022-07-30T00:04:20.136Z,16.88
2022-07-30T00:06:47.173Z,16.87
2022-07-30T00:09:14.087Z,16.84
2022-07-30T00:11:41.014Z,16.83
2022-07-30T00:14:07.869Z,16.83
2022-07-30T00:16:34.830Z,16.82
2022-07-30T00:19:02.569Z,16.81
2022-07-30T00:21:38.570Z,16.80
2022-07-30T00:24:08.740Z,16.69
2022-07-30T00:26:35.845Z,16.78
2022-07-30T00:29:02.832Z,16.75
2022-07-30T00:31:29.636Z,16.76
2022-07-30T00:33:57.262Z,16.75
2022-07-30T00:36:24.296Z,16.74
2022-07-30T00:38:51.228Z,16.75
2022-07-30T00:41:18.133Z,16.70
2022-07-30T00:43:45.583Z,16.67
2022-07-30T00:46:12.645Z,16.73
2022-07-30T00:48:39.759Z,16.72
2022-07-30T00:51:06.982Z,16.71
2022-07-30T00:53:35.001Z,16.72
2022-07-30T00:56:03.131Z,16.71
2022-07-30T00:58:30.223Z,16.71
2022-07-30T01:00:57.224Z,16.70
2022-07-30T01:03:24.129Z,16.71
2022-07-30T01:05:51.631Z,16.68
2022-07-30T01:08:18.695Z,16.69
2022-07-30T01:10:45.723Z,16.69
2022-07-30T01:13:13.122Z,16.69
2022-07-30T01:15:40.074Z,16.69
2022-07-30T01:18:11.483Z,16.66
2022-07-30T01:21:10.060Z,16.54
2022-07-30T01:23:43.809Z,16.69
2022-07-30T01:26:14.901Z,16.68
2022-07-30T01:28:49.987Z,16.62
2022-07-30T01:31:18.991Z,16.66
2022-07-30T01:33:48.946Z,16.70
2022-07-30T01:36:18.304Z,16.71
2022-07-30T01:38:46.885Z,16.70
2022-07-30T01:41:15.880Z,16.70
2022-07-30T01:43:45.544Z,16.69
2022-07-30T01:46:15.158Z,16.69
2022-07-30T01:48:43.872Z,16.65
2022-07-30T01:51:12.989Z,16.67
2022-07-30T01:53:41.871Z,16.68
2022-07-30T01:56:12.095Z,16.68
2022-07-30T01:58:40.767Z,16.68
2022-07-30T02:01:07.984Z,16.68
2022-07-30T02:03:35.807Z,16.69
2022-07-30T02:06:11.227Z,16.65
2022-07-30T02:08:45.898Z,16.70
2022-07-30T02:11:16.496Z,16.64
2022-07-30T02:13:53.113Z,16.66
2022-07-30T02:16:31.098Z,16.67
2022-07-30T02:19:04.384Z,16.68
2022-07-30T02:21:38.883Z,16.67
2022-07-30T02:24:12.343Z,16.69
2022-07-30T02:26:41.424Z,16.66
2022-07-30T02:29:11.423Z,16.70
2022-07-30T02:31:40.622Z,16.70
2022-07-30T02:34:10.565Z,16.69
2022-07-30T02:36:39.496Z,16.68
2022-07-30T02:39:08.704Z,16.67
2022-07-30T02:41:38.814Z,16.66
2022-07-30T02:44:06.882Z,16.65
2022-07-30T02:46:36.637Z,16.65
2022-07-30T02:49:05.491Z,16.64
2022-07-30T02:51:34.942Z,16.64
2022-07-30T02:54:04.151Z,16.65
2022-07-30T02:56:32.111Z,16.59
2022-07-30T02:59:01.979Z,16.66
2022-07-30T03:01:31.547Z,16.65
2022-07-30T03:03:58.679Z,16.65
2022-07-30T03:06:26.702Z,16.66
2022-07-30T03:08:55.228Z,16.65
2022-07-30T03:11:24.587Z,16.66
2022-07-30T03:13:51.488Z,16.65
2022-07-30T03:16:22.468Z,16.65
2022-07-30T03:18:50.225Z,16.66
2022-07-30T03:21:19.993Z,16.67
2022-07-30T03:23:48.110Z,16.66
2022-07-30T03:26:16.398Z,16.64
2022-07-30T03:28:44.164Z,16.67
2022-07-30T03:31:11.991Z,16.67
2022-07-30T03:33:40.005Z,16.68
2022-07-30T03:36:10.074Z,16.69
2022-07-30T03:38:38.908Z,16.70
2022-07-30T03:41:08.052Z,16.69
2022-07-30T03:43:35.858Z,16.68
2022-07-30T03:46:05.465Z,16.69
2022-07-30T03:48:34.549Z,16.68
2022-07-30T03:51:04.273Z,16.68
2022-07-30T03:53:32.184Z,16.69
2022-07-30T03:56:00.416Z,16.67
2022-07-30T03:58:27.457Z,16.69
2022-07-30T04:00:59.216Z,16.67
2022-07-30T04:03:31.770Z,16.64
2022-07-30T04:05:58.952Z,16.66
2022-07-30T04:08:25.997Z,16.65
2022-07-30T04:10:52.905Z,16.64
2022-07-30T04:13:19.940Z,16.63
2022-07-30T04:16:40.811Z,16.62
2022-07-30T04:19:03.801Z,16.61
2022-07-30T04:21:33.818Z,16.59
2022-07-30T04:24:05.111Z,16.59
2022-07-30T04:26:35.991Z,16.57
2022-07-30T04:29:06.016Z,16.57
2022-07-30T04:31:40.335Z,16.53
2022-07-30T04:34:08.454Z,16.55
2022-07-30T04:36:38.777Z,16.51
2022-07-30T04:39:05.665Z,16.55
2022-07-30T04:41:35.375Z,16.55
2022-07-30T04:44:16.418Z,16.55
2022-07-30T04:46:43.532Z,16.55
2022-07-30T04:49:12.220Z,16.55
2022-07-30T04:51:39.904Z,16.51
2022-07-30T04:54:15.448Z,16.57
2022-07-30T04:56:53.276Z,16.57
2022-07-30T04:59:28.007Z,16.56
2022-07-30T05:01:57.587Z,16.50
2022-07-30T05:04:25.750Z,16.53
2022-07-30T05:06:53.997Z,16.59
2022-07-30T05:09:21.286Z,16.58
2022-07-30T05:11:55.000Z,16.58
2022-07-30T05:14:23.830Z,16.59
2022-07-30T05:16:52.107Z,16.59
2022-07-30T05:19:20.344Z,16.57
2022-07-30T05:21:47.479Z,16.61
2022-07-30T05:24:15.156Z,16.57
2022-07-30T05:26:42.342Z,16.63
2022-07-30T05:29:09.494Z,16.64
2022-07-30T05:31:46.822Z,16.65
2022-07-30T05:34:13.674Z,16.66
2022-07-30T05:36:40.575Z,16.67
2022-07-30T05:39:07.427Z,16.67
2022-07-30T05:41:34.361Z,16.69
2022-07-30T05:44:01.978Z,16.70
2022-07-30T05:46:31.226Z,16.65
2022-07-30T05:48:58.575Z,16.70
2022-07-30T05:51:25.776Z,16.71
2022-07-30T05:53:52.673Z,16.70
2022-07-30T05:56:19.621Z,16.71
2022-07-30T05:58:46.723Z,16.72
2022-07-30T06:01:13.758Z,16.74
2022-07-30T06:03:40.665Z,16.74
2022-07-30T06:06:08.481Z,16.77
2022-07-30T06:08:35.623Z,16.78
2022-07-30T06:11:02.778Z,16.80
2022-07-30T06:13:29.720Z,16.79
2022-07-30T06:15:57.064Z,16.80
2022-07-30T06:18:24.117Z,16.79
2022-07-30T06:20:52.461Z,16.82
2022-07-30T06:23:20.365Z,16.83
2022-07-30T06:25:48.387Z,16.83
2022-07-30T06:28:36.636Z,16.83
2022-07-30T06:31:03.373Z,16.85
2022-07-30T06:33:30.420Z,16.87
2022-07-30T06:35:57.509Z,16.90
2022-07-30T06:38:24.364Z,16.91
2022-07-30T06:40:51.350Z,16.94
2022-07-30T06:43:19.700Z,16.95
2022-07-30T06:45:46.679Z,16.97
2022-07-30T06:48:13.619Z,16.96
2022-07-30T06:50:41.951Z,16.96
2022-07-30T06:53:09.054Z,16.98
2022-07-30T06:55:35.947Z,16.98
2022-07-30T06:58:02.991Z,16.98
2022-07-30T07:00:30.044Z,17.00
2022-07-30T07:02:56.981Z,17.00
2022-07-30T07:05:23.895Z,17.00
2022-07-30T07:07:58.783Z,17.01
2022-07-30T07:10:26.932Z,17.02
2022-07-30T07:12:54.187Z,17.02
2022-07-30T07:15:22.404Z,17.05
2022-07-30T07:18:03.897Z,17.02
2022-07-30T07:20:30.941Z,17.09
2022-07-30T07:22:57.888Z,17.09
2022-07-30T07:25:24.877Z,17.13
2022-07-30T07:28:12.369Z,17.16
2022-07-30T07:30:38.793Z,17.20
2022-07-30T07:33:05.786Z,17.24
2022-07-30T07:35:40.441Z,17.27
2022-07-30T07:38:16.725Z,17.33
2022-07-30T07:40:43.679Z,17.37
2022-07-30T07:43:10.664Z,17.41
2022-07-30T07:45:37.692Z,17.48
2022-07-30T07:48:05.033Z,17.62
2022-07-30T07:50:32.113Z,17.78
2022-07-30T07:52:59.322Z,17.91
2022-07-30T07:55:26.517Z,18.03
2022-07-30T07:57:54.086Z,18.12
2022-07-30T08:00:21.387Z,18.19
2022-07-30T08:02:49.306Z,18.16
2022-07-30T08:05:17.576Z,18.18
2022-07-30T08:07:45.752Z,18.12
2022-07-30T08:10:15.201Z,18.13
2022-07-30T08:12:42.558Z,18.18
2022-07-30T08:15:10.173Z,18.22
2022-07-30T08:17:43.780Z,18.31
2022-07-30T08:20:12.002Z,18.47
2022-07-30T08:22:39.260Z,18.55
2022-07-30T08:25:06.547Z,18.58
2022-07-30T08:27:33.458Z,18.61
2022-07-30T08:30:08.388Z,18.66
2022-07-30T08:32:36.190Z,18.75
2022-07-30T08:35:04.734Z,19.13
2022-07-30T08:37:32.183Z,19.44
2022-07-30T08:39:59.233Z,19.85
2022-07-30T08:42:27.917Z,20.22
2022-07-30T08:44:56.450Z,20.54
2022-07-30T08:47:31.017Z,21.09
2022-07-30T08:50:01.910Z,21.52
2022-07-30T08:52:29.062Z,21.67
2022-07-30T08:54:56.258Z,21.70
2022-07-30T08:57:23.590Z,21.57
2022-07-30T08:59:59.935Z,21.43
2022-07-30T09:02:31.769Z,21.24
2022-07-30T09:04:58.956Z,21.02
2022-07-30T09:07:25.788Z,20.81
2022-07-30T09:09:52.732Z,20.66
2022-07-30T09:12:45.891Z,20.37
2022-07-30T09:15:18.103Z,20.27
2022-07-30T09:17:50.536Z,20.13
2022-07-30T09:20:18.855Z,20.12
2022-07-30T09:22:51.899Z,20.08
2022-07-30T09:25:40.203Z,19.96
2022-07-30T09:28:16.383Z,19.91
2022-07-30T09:30:54.101Z,19.79
2022-07-30T09:33:34.213Z,19.74
2022-07-30T09:36:01.862Z,19.65
2022-07-30T09:38:28.968Z,19.60
2022-07-30T09:40:58.138Z,19.52
2022-07-30T09:43:27.990Z,19.50
2022-07-30T09:45:58.658Z,19.51
2022-07-30T09:48:27.801Z,19.59
2022-07-30T09:50:57.606Z,19.62
2022-07-30T09:53:24.774Z,19.65
2022-07-30T09:55:51.914Z,19.63
2022-07-30T09:58:26.495Z,19.71
2022-07-30T10:00:59.751Z,19.81
2022-07-30T10:03:38.401Z,20.13
2022-07-30T10:06:11.246Z,20.60
2022-07-30T10:08:50.783Z,21.07
2022-07-30T10:11:23.712Z,21.33
2022-07-30T10:13:59.406Z,21.35
2022-07-30T10:16:28.201Z,21.42
2022-07-30T10:18:58.321Z,21.41
2022-07-30T10:21:26.696Z,21.42
2022-07-30T10:23:54.161Z,21.31
2022-07-30T10:26:21.552Z,21.20
2022-07-30T10:28:51.163Z,21.13
2022-07-30T10:31:48.309Z,21.08
2022-07-30T10:34:07.837Z,20.96
2022-07-30T10:36:36.170Z,20.93
2022-07-30T10:39:05.209Z,20.93
2022-07-30T10:41:54.035Z,20.89
2022-07-30T10:44:58.799Z,21.03
2022-07-30T10:47:35.511Z,21.22
2022-07-30T10:50:10.545Z,21.41
2022-07-30T10:52:44.630Z,21.32
2022-07-30T10:55:15.820Z,21.42
2022-07-30T10:58:00.277Z,21.34
2022-07-30T11:00:28.973Z,21.28
2022-07-30T11:03:16.084Z,21.21
2022-07-30T11:05:45.906Z,21.24
2022-07-30T11:08:36.655Z,21.11
2022-07-30T11:12:02.350Z,21.16
2022-07-30T11:14:17.849Z,21.34
2022-07-30T11:16:48.385Z,21.46
2022-07-30T11:19:56.433Z,21.58
2022-07-30T11:22:28.363Z,21.70
2022-07-30T11:24:57.537Z,21.92
2022-07-30T11:27:50.496Z,22.14
2022-07-30T11:30:17.909Z,22.47
2022-07-30T11:32:53.030Z,22.63
2022-07-30T11:35:38.163Z,22.46
2022-07-30T11:38:22.230Z,22.39
2022-07-30T11:40:49.356Z,22.41
2022-07-30T11:43:34.523Z,22.35
2022-07-30T11:46:29.302Z,22.32
2022-07-30T11:49:08.929Z,22.00
2022-07-30T11:51:43.129Z,21.98
2022-07-30T11:54:11.919Z,21.94
2022-07-30T11:56:52.798Z,21.87
2022-07-30T11:59:20.039Z,21.87
2022-07-30T12:01:53.502Z,21.69
2022-07-30T12:04:20.551Z,21.70
2022-07-30T12:06:48.755Z,21.65
2022-07-30T12:09:23.955Z,21.65
2022-07-30T12:11:56.014Z,21.53
2022-07-30T12:14:23.292Z,21.57
2022-07-30T12:16:51.883Z,21.50
2022-07-30T12:19:18.904Z,21.48
2022-07-30T12:21:49.554Z,21.59
2022-07-30T12:24:26.990Z,21.63
2022-07-30T12:27:05.675Z,21.58
2022-07-30T12:29:34.483Z,21.58
2022-07-30T12:32:01.988Z,21.59
2022-07-30T12:34:29.088Z,21.52
2022-07-30T12:36:56.134Z,21.49
2022-07-30T12:39:25.291Z,21.50
2022-07-30T12:41:56.243Z,21.58
2022-07-30T12:44:44.781Z,21.50
2022-07-30T12:47:29.077Z,21.53
2022-07-30T12:49:58.155Z,21.57
2022-07-30T12:52:31.314Z,21.50
2022-07-30T12:55:06.301Z,21.42
2022-07-30T12:58:08.684Z,21.30
2022-07-30T13:00:44.915Z,21.12
2022-07-30T13:03:27.398Z,21.02
2022-07-30T13:05:56.179Z,20.97
2022-07-30T13:08:55.246Z,20.90
2022-07-30T13:11:25.866Z,20.79
2022-07-30T13:13:53.365Z,20.65
2022-07-30T13:16:21.385Z,20.66
2022-07-30T13:18:48.292Z,20.63
2022-07-30T13:21:15.223Z,20.69
2022-07-30T13:23:42.742Z,20.74
2022-07-30T13:26:10.449Z,20.81
2022-07-30T13:28:37.455Z,20.79
2022-07-30T13:31:04.655Z,20.82
2022-07-30T13:33:31.948Z,20.80
2022-07-30T13:35:59.367Z,20.82
2022-07-30T13:38:27.227Z,20.82
2022-07-30T13:40:57.017Z,20.75
2022-07-30T13:43:27.722Z,20.65
2022-07-30T13:45:54.674Z,20.59
2022-07-30T13:48:26.786Z,20.53
2022-07-30T13:50:53.669Z,20.56
2022-07-30T13:53:21.026Z,20.57
2022-07-30T13:55:49.457Z,20.55
2022-07-30T13:58:16.407Z,20.56
2022-07-30T14:00:45.301Z,20.64
2022-07-30T14:03:12.607Z,20.70
2022-07-30T14:05:42.371Z,20.75
2022-07-30T14:08:11.058Z,20.72
2022-07-30T14:10:40.045Z,20.61
2022-07-30T14:13:08.414Z,20.65
2022-07-30T14:15:35.368Z,20.74
2022-07-30T14:18:02.557Z,20.75
2022-07-30T14:20:29.924Z,20.71
2022-07-30T14:22:57.737Z,20.67
2022-07-30T14:25:24.984Z,20.62
2022-07-30T14:27:51.872Z,20.61
2022-07-30T14:30:18.939Z,20.61
2022-07-30T14:32:45.918Z,20.62
2022-07-30T14:35:13.169Z,20.61
2022-07-30T14:37:40.731Z,20.54
2022-07-30T14:40:11.575Z,20.54
2022-07-30T14:42:40.154Z,20.50
2022-07-30T14:45:11.002Z,20.44
2022-07-30T14:47:39.414Z,20.36
2022-07-30T14:50:07.757Z,20.26
2022-07-30T14:52:38.885Z,20.18
2022-07-30T14:55:10.044Z,20.09
2022-07-30T14:57:37.192Z,20.00
2022-07-30T15:00:06.125Z,20.00
2022-07-30T15:02:33.027Z,19.97
2022-07-30T15:04:59.916Z,19.93
2022-07-30T15:07:27.264Z,19.95
2022-07-30T15:09:54.121Z,19.97
2022-07-30T15:12:26.753Z,19.98
2022-07-30T15:14:54.450Z,19.99
2022-07-30T15:17:22.685Z,20.03
2022-07-30T15:19:50.763Z,20.03
2022-07-30T15:22:22.457Z,20.01
2022-07-30T15:24:49.362Z,20.01
2022-07-30T15:27:16.809Z,20.02
2022-07-30T15:29:44.632Z,19.99
2022-07-30T15:32:11.611Z,19.97
2022-07-30T15:34:38.422Z,19.97
2022-07-30T15:37:06.331Z,19.98
2022-07-30T15:39:33.948Z,20.04
2022-07-30T15:42:02.323Z,20.08
2022-07-30T15:44:29.632Z,20.12
2022-07-30T15:46:56.663Z,20.17
2022-07-30T15:49:23.688Z,20.15
2022-07-30T15:51:52.005Z,20.18
2022-07-30T15:54:22.421Z,20.15
2022-07-30T15:56:50.758Z,20.11
2022-07-30T15:59:18.009Z,20.01
2022-07-30T16:01:45.218Z,20.01
2022-07-30T16:04:18.925Z,20.00
2022-07-30T16:06:50.145Z,20.07
2022-07-30T16:09:19.998Z,20.14
2022-07-30T16:11:47.239Z,20.09
2022-07-30T16:14:14.153Z,20.13
2022-07-30T16:16:41.004Z,20.06
2022-07-30T16:19:08.194Z,20.03
2022-07-30T16:21:36.025Z,20.03
2022-07-30T16:24:03.580Z,20.03
2022-07-30T16:26:31.241Z,20.08
2022-07-30T16:28:58.177Z,20.12
2022-07-30T16:31:25.036Z,20.16
2022-07-30T16:33:51.976Z,20.23
2022-07-30T16:36:18.812Z,20.20
2022-07-30T16:38:45.717Z,20.14
2022-07-30T16:41:13.632Z,20.08
2022-07-30T16:43:40.734Z,20.04
2022-07-30T16:46:07.663Z,20.04
2022-07-30T16:48:34.924Z,20.03
2022-07-30T16:51:01.975Z,20.06
2022-07-30T16:53:29.006Z,20.06
2022-07-30T16:55:57.188Z,20.06
2022-07-30T16:58:28.415Z,20.08
2022-07-30T17:00:58.634Z,20.07
2022-07-30T17:03:25.864Z,20.09
2022-07-30T17:05:52.799Z,20.11
2022-07-30T17:08:24.992Z,20.12
2022-07-30T17:10:53.147Z,20.11
2022-07-30T17:13:20.912Z,20.07
2022-07-30T17:15:48.771Z,20.05
2022-07-30T17:18:16.079Z,19.97
2022-07-30T17:20:44.050Z,19.93
2022-07-30T17:23:11.114Z,19.83
2022-07-30T17:25:38.093Z,19.78
2022-07-30T17:28:05.241Z,19.75
2022-07-30T17:30:32.153Z,19.68
2022-07-30T17:32:59.032Z,19.60
2022-07-30T17:35:26.539Z,19.52
2022-07-30T17:37:53.912Z,19.46
2022-07-30T17:40:30.661Z,19.42
2022-07-30T17:43:06.156Z,19.40
2022-07-30T17:45:35.164Z,19.43
2022-07-30T17:48:02.819Z,19.45
2022-07-30T17:50:34.622Z,19.50
2022-07-30T17:53:03.711Z,19.46
2022-07-30T17:55:31.739Z,19.51
2022-07-30T17:57:58.994Z,19.50
2022-07-30T18:00:25.832Z,19.45
2022-07-30T18:02:52.787Z,19.40
2022-07-30T18:05:20.129Z,19.37
2022-07-30T18:07:47.028Z,19.25
2022-07-30T18:10:14.222Z,19.13
2022-07-30T18:12:48.404Z,19.07
2022-07-30T18:15:17.198Z,18.99
2022-07-30T18:17:44.100Z,18.94
2022-07-30T18:20:11.542Z,18.88
2022-07-30T18:22:38.530Z,18.89
2022-07-30T18:25:07.940Z,18.83
2022-07-30T18:27:35.030Z,18.87
2022-07-30T18:30:01.941Z,18.92
2022-07-30T18:32:28.822Z,18.94
2022-07-30T18:34:55.720Z,18.94
2022-07-30T18:37:22.736Z,18.92
2022-07-30T18:39:49.704Z,18.87
2022-07-30T18:42:16.556Z,18.85
2022-07-30T18:44:43.446Z,18.85
2022-07-30T18:47:10.966Z,18.86
2022-07-30T18:49:38.278Z,18.83
2022-07-30T18:52:07.272Z,18.79
2022-07-30T18:54:35.067Z,18.77
2022-07-30T18:57:02.218Z,18.69
2022-07-30T18:59:29.210Z,18.68
2022-07-30T19:01:56.117Z,18.64
2022-07-30T19:04:23.066Z,18.56
2022-07-30T19:06:50.354Z,18.56
2022-07-30T19:09:18.294Z,18.52
2022-07-30T19:11:46.430Z,18.50
2022-07-30T19:14:14.490Z,18.52
2022-07-30T19:16:42.430Z,18.48
2022-07-30T19:19:09.593Z,18.41
2022-07-30T19:21:36.527Z,18.44
2022-07-30T19:24:03.942Z,18.41
2022-07-30T19:26:30.899Z,18.41
2022-07-30T19:28:58.090Z,18.38
2022-07-30T19:31:25.030Z,18.34
2022-07-30T19:33:51.975Z,18.28
2022-07-30T19:36:21.228Z,18.27
2022-07-30T19:38:49.049Z,18.23
2022-07-30T19:41:17.108Z,18.17
2022-07-30T19:43:57.842Z,18.14
2022-07-30T19:46:25.523Z,18.14
2022-07-30T19:48:52.558Z,18.11
2022-07-30T19:51:20.460Z,18.09
2022-07-30T19:53:48.166Z,18.04
2022-07-30T19:56:15.125Z,18.03
2022-07-30T19:58:42.313Z,18.01
2022-07-30T20:01:11.306Z,17.98
2022-07-30T20:03:39.089Z,17.95
2022-07-30T20:06:07.911Z,17.90
2022-07-30T20:08:38.507Z,17.92
2022-07-30T20:11:07.528Z,17.87
2022-07-30T20:13:44.970Z,17.90
2022-07-30T20:16:14.623Z,17.88
2022-07-30T20:18:44.481Z,17.85
2022-07-30T20:21:15.623Z,17.84
2022-07-30T20:23:44.734Z,17.84
2022-07-30T20:26:14.556Z,17.82
2022-07-30T20:28:52.423Z,17.82
2022-07-30T20:31:20.112Z,17.81
2022-07-30T20:33:49.507Z,17.79
2022-07-30T20:36:18.200Z,17.79
2022-07-30T20:38:47.212Z,17.78
2022-07-30T20:41:14.864Z,17.76
2022-07-30T20:43:51.887Z,17.75
2022-07-30T20:46:22.937Z,17.73
2022-07-30T20:48:51.868Z,17.71
2022-07-30T20:51:18.876Z,17.68
2022-07-30T20:53:45.921Z,17.69
2022-07-30T20:56:14.789Z,17.66
2022-07-30T20:58:46.013Z,17.64
2022-07-30T21:01:15.801Z,17.63
2022-07-30T21:06:32.141Z,17.60
2022-07-30T21:09:01.585Z,17.58
2022-07-30T21:11:28.659Z,17.55
2022-07-30T21:13:55.734Z,17.55
2022-07-30T21:16:23.898Z,17.53
2022-07-30T21:18:51.052Z,17.52
2022-07-30T21:21:29.191Z,17.52
2022-07-30T21:24:11.692Z,17.52
2022-07-30T21:26:40.691Z,17.53
2022-07-30T21:29:08.422Z,17.52
2022-07-30T21:32:00.507Z,17.50
2022-07-30T21:34:26.111Z,17.51
2022-07-30T21:36:54.449Z,17.51
2022-07-30T21:39:29.172Z,17.48
2022-07-30T21:41:56.541Z,17.49
2022-07-30T21:44:23.820Z,17.50
2022-07-30T21:46:50.765Z,17.50
2022-07-30T21:49:17.846Z,17.51
2022-07-30T21:51:44.814Z,17.51
2022-07-30T21:54:15.853Z,17.51
2022-07-30T21:56:46.030Z,17.51
2022-07-30T21:59:12.997Z,17.51
2022-07-30T22:01:47.649Z,17.52
2022-07-30T22:04:14.804Z,17.51
2022-07-30T22:06:43.600Z,17.50
2022-07-30T22:09:19.675Z,17.46
2022-07-30T22:12:01.133Z,17.48
2022-07-30T22:14:29.220Z,17.47
2022-07-30T22:16:56.733Z,17.46
2022-07-30T22:19:23.731Z,17.43
2022-07-30T22:21:52.979Z,17.44
2022-07-30T22:24:29.617Z,17.43
2022-07-30T22:27:11.755Z,17.42
2022-07-30T22:29:43.216Z,17.39
2022-07-30T22:32:29.848Z,17.40
2022-07-30T22:34:57.438Z,17.41
2022-07-30T22:37:25.428Z,17.40
2022-07-30T22:40:01.683Z,17.39
2022-07-30T22:42:28.695Z,17.37
2022-07-30T22:44:55.870Z,17.34
2022-07-30T22:47:50.613Z,17.32
2022-07-30T22:50:11.604Z,17.28
2022-07-30T22:52:40.169Z,17.26
2022-07-30T22:58:06.966Z,17.24
2022-07-30T23:00:34.492Z,17.24
2022-07-30T23:03:01.293Z,17.22
2022-07-30T23:05:29.203Z,17.19
2022-07-30T23:07:56.298Z,17.18
2022-07-30T23:10:25.687Z,17.16
2022-07-30T23:12:30.273Z,17.62
2022-07-30T23:12:30.762Z,17.25
2022-07-30T23:12:55.179Z,17.15
2022-07-30T23:15:23.031Z,17.13
2022-07-30T23:17:49.919Z,17.11
2022-07-30T23:20:20.663Z,17.10
2022-07-30T23:22:48.056Z,17.09
2022-07-30T23:25:15.007Z,17.08
2022-07-30T23:27:42.269Z,17.06
2022-07-30T23:30:11.550Z,17.04
2022-07-30T23:32:40.136Z,17.04
2022-07-30T23:35:09.135Z,17.03
2022-07-30T23:37:48.683Z,16.99
2022-07-30T23:40:19.138Z,17.03
2022-07-30T23:42:47.953Z,17.02
2022-07-30T23:45:15.106Z,17.00
2022-07-30T23:48:02.050Z,17.01
2022-07-30T23:50:29.983Z,17.00
2022-07-30T23:52:57.067Z,16.98
2022-07-30T23:55:24.221Z,16.99
2022-07-30T23:57:51.074Z,17.01
